EWG33MC EDDH-EDDM
Flight info
| Callsign | EWG33MC |
|---|---|
| Flight time | 1h 4m |
| Altitude | 35000 |
| Route | AMLUH2G/33 AMLUH M852 DENIX DCT ZUCKA DCT SODRO/N0456F310 T703 LULAR/N0457F300 T105 LANDU LANDU2A |
| Aircraft | A320/M-SDE3FGHIRWY/LB1 |
Departure
| Time | 2026-05-06 15:06 |
|---|---|
| Airport | Hamburg Helmut Schmidt Airport (EDDH) |
Arrival
| Time | 2026-05-06 16:10 |
|---|---|
| Airport | Munich Airport (EDDM) |
| Time | Latitude | Longitude | Altitude | Speed | Heading |
|---|---|---|---|---|---|
| 2026-05-06 14:24 | 53.63097 | 10.00011 | 49 ft | 0 kts | 140° |
| 2026-05-06 14:57 | 53.63104 | 10.00000 | 46 ft | 2 kts | 140° |
| 2026-05-06 14:57 | 53.63113 | 9.99988 | 45 ft | 2 kts | 140° |
| 2026-05-06 14:58 | 53.63126 | 9.99970 | 46 ft | 2 kts | 176° |
| 2026-05-06 14:58 | 53.63140 | 9.99974 | 47 ft | 0 kts | 231° |
| 2026-05-06 15:01 | 53.63138 | 9.99970 | 48 ft | 2 kts | 231° |
| 2026-05-06 15:01 | 53.63123 | 9.99939 | 47 ft | 4 kts | 228° |
| 2026-05-06 15:02 | 53.63072 | 9.99933 | 47 ft | 9 kts | 149° |
| 2026-05-06 15:02 | 53.62989 | 9.99969 | 48 ft | 14 kts | 192° |
| 2026-05-06 15:02 | 53.62916 | 9.99961 | 48 ft | 9 kts | 234° |
| 2026-05-06 15:02 | 53.62899 | 9.99923 | 48 ft | 0 kts | 238° |
| 2026-05-06 15:04 | 53.62893 | 9.99905 | 48 ft | 8 kts | 241° |
| 2026-05-06 15:04 | 53.62872 | 9.99779 | 45 ft | 6 kts | 282° |
| 2026-05-06 15:04 | 53.62902 | 9.99718 | 45 ft | 12 kts | 330° |
| 2026-05-06 15:05 | 53.63049 | 9.99600 | 45 ft | 39 kts | 333° |
| 2026-05-06 15:05 | 53.63512 | 9.99197 | 47 ft | 108 kts | 332° |
| 2026-05-06 15:05 | 53.64345 | 9.98472 | 55 ft | 159 kts | 329° |
| 2026-05-06 15:05 | 53.65343 | 9.97566 | 646 ft | 166 kts | 336° |
| 2026-05-06 15:06 | 53.66409 | 9.96693 | 1353 ft | 172 kts | 340° |
| 2026-05-06 15:06 | 53.67515 | 9.95837 | 1968 ft | 180 kts | 342° |
| 2026-05-06 15:06 | 53.68751 | 9.94974 | 2278 ft | 204 kts | 345° |
| 2026-05-06 15:06 | 53.70184 | 9.94543 | 2868 ft | 211 kts | 2° |
| 2026-05-06 15:07 | 53.71628 | 9.94539 | 3855 ft | 207 kts | 11° |
| 2026-05-06 15:07 | 53.72883 | 9.95541 | 4591 ft | 206 kts | 49° |
| 2026-05-06 15:07 | 53.73543 | 9.97673 | 5359 ft | 210 kts | 76° |
| 2026-05-06 15:07 | 53.73887 | 10.00096 | 6187 ft | 214 kts | 76° |
| 2026-05-06 15:08 | 53.74099 | 10.02662 | 6723 ft | 234 kts | 89° |
| 2026-05-06 15:08 | 53.74005 | 10.05592 | 6862 ft | 261 kts | 93° |
| 2026-05-06 15:08 | 53.73830 | 10.08675 | 6888 ft | 265 kts | 94° |
| 2026-05-06 15:08 | 53.73644 | 10.11755 | 6891 ft | 264 kts | 94° |
| 2026-05-06 15:09 | 53.73455 | 10.14845 | 6891 ft | 265 kts | 95° |
| 2026-05-06 15:09 | 53.73270 | 10.17975 | 7159 ft | 271 kts | 94° |
| 2026-05-06 15:09 | 53.73012 | 10.21121 | 8201 ft | 272 kts | 104° |
| 2026-05-06 15:09 | 53.72144 | 10.23986 | 9156 ft | 279 kts | 128° |
| 2026-05-06 15:10 | 53.70608 | 10.26055 | 9713 ft | 288 kts | 154° |
| 2026-05-06 15:10 | 53.68656 | 10.26836 | 9858 ft | 292 kts | 172° |
| 2026-05-06 15:10 | 53.66541 | 10.27256 | 9887 ft | 316 kts | 172° |
| 2026-05-06 15:10 | 53.64334 | 10.27691 | 9885 ft | 321 kts | 172° |
| 2026-05-06 15:11 | 53.62113 | 10.28137 | 9895 ft | 322 kts | 172° |
| 2026-05-06 15:11 | 53.59890 | 10.28596 | 9892 ft | 322 kts | 172° |
| 2026-05-06 15:11 | 53.57667 | 10.29067 | 9891 ft | 322 kts | 171° |
| 2026-05-06 15:11 | 53.55433 | 10.29549 | 10027 ft | 327 kts | 171° |
| 2026-05-06 15:12 | 53.53177 | 10.30039 | 10980 ft | 325 kts | 171° |
| 2026-05-06 15:12 | 53.50934 | 10.30520 | 11955 ft | 325 kts | 172° |
| 2026-05-06 15:12 | 53.48684 | 10.31000 | 12866 ft | 326 kts | 172° |
| 2026-05-06 15:12 | 53.46455 | 10.31478 | 13684 ft | 328 kts | 172° |
| 2026-05-06 15:13 | 53.44183 | 10.31967 | 14413 ft | 331 kts | 173° |
| 2026-05-06 15:13 | 53.41904 | 10.32687 | 15065 ft | 336 kts | 165° |
| 2026-05-06 15:13 | 53.39642 | 10.33722 | 15751 ft | 338 kts | 166° |
| 2026-05-06 15:13 | 53.37360 | 10.34755 | 16450 ft | 341 kts | 167° |
| 2026-05-06 15:14 | 53.35055 | 10.35790 | 17150 ft | 345 kts | 167° |
| 2026-05-06 15:14 | 53.32724 | 10.36830 | 17842 ft | 348 kts | 167° |
| 2026-05-06 15:14 | 53.30369 | 10.37878 | 18475 ft | 351 kts | 167° |
| 2026-05-06 15:14 | 53.27994 | 10.38939 | 19036 ft | 355 kts | 167° |
| 2026-05-06 15:15 | 53.25599 | 10.40009 | 19615 ft | 358 kts | 167° |
| 2026-05-06 15:15 | 53.23184 | 10.41089 | 20176 ft | 362 kts | 166° |
| 2026-05-06 15:15 | 53.20739 | 10.42184 | 20739 ft | 365 kts | 166° |
| 2026-05-06 15:15 | 53.18273 | 10.43287 | 21319 ft | 369 kts | 166° |
| 2026-05-06 15:16 | 53.15783 | 10.44398 | 21882 ft | 372 kts | 166° |
| 2026-05-06 15:16 | 53.13268 | 10.45516 | 22447 ft | 376 kts | 166° |
| 2026-05-06 15:16 | 53.10714 | 10.46526 | 23013 ft | 379 kts | 168° |
| 2026-05-06 15:16 | 53.08124 | 10.47383 | 23549 ft | 381 kts | 170° |
| 2026-05-06 15:17 | 53.05506 | 10.48156 | 23989 ft | 384 kts | 171° |
| 2026-05-06 15:17 | 53.02864 | 10.48904 | 24428 ft | 386 kts | 171° |
| 2026-05-06 15:17 | 53.00214 | 10.49662 | 24915 ft | 387 kts | 170° |
| 2026-05-06 15:17 | 52.97553 | 10.50449 | 25327 ft | 390 kts | 169° |
| 2026-05-06 15:18 | 52.94876 | 10.51265 | 25757 ft | 393 kts | 169° |
| 2026-05-06 15:18 | 52.92183 | 10.52103 | 26176 ft | 395 kts | 169° |
| 2026-05-06 15:18 | 52.89479 | 10.52951 | 26598 ft | 397 kts | 169° |
| 2026-05-06 15:18 | 52.86749 | 10.53806 | 27005 ft | 400 kts | 169° |
| 2026-05-06 15:19 | 52.84006 | 10.54662 | 27391 ft | 402 kts | 169° |
| 2026-05-06 15:19 | 52.81243 | 10.55521 | 27806 ft | 404 kts | 169° |
| 2026-05-06 15:19 | 52.78506 | 10.56365 | 28213 ft | 407 kts | 169° |
| 2026-05-06 15:19 | 52.75715 | 10.57217 | 28594 ft | 410 kts | 170° |
| 2026-05-06 15:20 | 52.72905 | 10.58073 | 29055 ft | 411 kts | 170° |
| 2026-05-06 15:20 | 52.70084 | 10.58934 | 29465 ft | 413 kts | 169° |
| 2026-05-06 15:20 | 52.67248 | 10.59796 | 29837 ft | 415 kts | 171° |
| 2026-05-06 15:20 | 52.64406 | 10.60663 | 30195 ft | 417 kts | 171° |
| 2026-05-06 15:21 | 52.61548 | 10.61535 | 30515 ft | 418 kts | 171° |
| 2026-05-06 15:21 | 52.58678 | 10.62410 | 30817 ft | 420 kts | 171° |
| 2026-05-06 15:21 | 52.55792 | 10.63287 | 31110 ft | 422 kts | 172° |
| 2026-05-06 15:21 | 52.52901 | 10.64162 | 31413 ft | 423 kts | 172° |
| 2026-05-06 15:22 | 52.50010 | 10.65042 | 31863 ft | 421 kts | 172° |
| 2026-05-06 15:22 | 52.47141 | 10.65916 | 32295 ft | 419 kts | 172° |
| 2026-05-06 15:22 | 52.44275 | 10.66790 | 32704 ft | 419 kts | 173° |
| 2026-05-06 15:22 | 52.41410 | 10.67663 | 33123 ft | 418 kts | 173° |
| 2026-05-06 15:23 | 52.38550 | 10.68530 | 33517 ft | 418 kts | 173° |
| 2026-05-06 15:23 | 52.35688 | 10.69390 | 33886 ft | 417 kts | 173° |
| 2026-05-06 15:23 | 52.32832 | 10.70246 | 34195 ft | 417 kts | 173° |
| 2026-05-06 15:23 | 52.29972 | 10.71105 | 34490 ft | 417 kts | 173° |
| 2026-05-06 15:24 | 52.27115 | 10.71965 | 34729 ft | 418 kts | 173° |
| 2026-05-06 15:24 | 52.21460 | 10.73668 | 34807 ft | 408 kts | 173° |
| 2026-05-06 15:25 | 52.15910 | 10.75335 | 34806 ft | 405 kts | 173° |
| 2026-05-06 15:25 | 52.10374 | 10.76976 | 34803 ft | 404 kts | 173° |
| 2026-05-06 15:26 | 52.04835 | 10.78618 | 34795 ft | 404 kts | 173° |
| 2026-05-06 15:26 | 51.99305 | 10.80251 | 34789 ft | 403 kts | 173° |
| 2026-05-06 15:27 | 51.93828 | 10.81876 | 34778 ft | 402 kts | 173° |
| 2026-05-06 15:27 | 51.88321 | 10.83514 | 34776 ft | 402 kts | 173° |
| 2026-05-06 15:28 | 51.82821 | 10.85140 | 34772 ft | 401 kts | 173° |
| 2026-05-06 15:28 | 51.77334 | 10.86742 | 34763 ft | 401 kts | 173° |
| 2026-05-06 15:29 | 51.71836 | 10.88351 | 34764 ft | 402 kts | 173° |
| 2026-05-06 15:29 | 51.66385 | 10.90487 | 34767 ft | 408 kts | 161° |
| 2026-05-06 15:30 | 51.61254 | 10.94495 | 34764 ft | 410 kts | 158° |
| 2026-05-06 15:30 | 51.56129 | 10.98553 | 34765 ft | 411 kts | 158° |
| 2026-05-06 15:31 | 51.50996 | 11.02585 | 34758 ft | 410 kts | 158° |
| 2026-05-06 15:31 | 51.45873 | 11.06605 | 34761 ft | 410 kts | 158° |
| 2026-05-06 15:32 | 51.38231 | 11.12586 | 34763 ft | 408 kts | 159° |
| 2026-05-06 15:32 | 51.33141 | 11.16558 | 34776 ft | 406 kts | 159° |
| 2026-05-06 15:33 | 51.28063 | 11.20511 | 34779 ft | 405 kts | 159° |
| 2026-05-06 15:33 | 51.22992 | 11.24451 | 34764 ft | 405 kts | 159° |
| 2026-05-06 15:34 | 51.17927 | 11.28374 | 34768 ft | 404 kts | 159° |
| 2026-05-06 15:34 | 51.12865 | 11.32283 | 34756 ft | 404 kts | 159° |
| 2026-05-06 15:35 | 51.07804 | 11.36183 | 34761 ft | 404 kts | 159° |
| 2026-05-06 15:35 | 51.02742 | 11.40080 | 34752 ft | 404 kts | 159° |
| 2026-05-06 15:36 | 50.97678 | 11.43969 | 34735 ft | 404 kts | 160° |
| 2026-05-06 15:36 | 50.92604 | 11.47841 | 34743 ft | 404 kts | 160° |
| 2026-05-06 15:37 | 50.87541 | 11.51703 | 34744 ft | 404 kts | 160° |
| 2026-05-06 15:37 | 50.82471 | 11.55561 | 34748 ft | 404 kts | 160° |
| 2026-05-06 15:38 | 50.77407 | 11.59415 | 34750 ft | 404 kts | 160° |
| 2026-05-06 15:38 | 50.72368 | 11.63244 | 34735 ft | 404 kts | 160° |
| 2026-05-06 15:39 | 50.67281 | 11.67083 | 34737 ft | 405 kts | 160° |
| 2026-05-06 15:39 | 50.62189 | 11.70917 | 34741 ft | 405 kts | 160° |
| 2026-05-06 15:40 | 50.57096 | 11.74737 | 34732 ft | 405 kts | 160° |
| 2026-05-06 15:40 | 50.52042 | 11.78542 | 34751 ft | 405 kts | 160° |
| 2026-05-06 15:41 | 50.46952 | 11.82364 | 34761 ft | 405 kts | 160° |
| 2026-05-06 15:41 | 50.41826 | 11.86000 | 34769 ft | 403 kts | 162° |
| 2026-05-06 15:42 | 50.36662 | 11.89424 | 34772 ft | 403 kts | 163° |
| 2026-05-06 15:42 | 50.31499 | 11.92853 | 34772 ft | 403 kts | 162° |
| 2026-05-06 15:43 | 50.27215 | 11.95731 | 34772 ft | 403 kts | 162° |
| 2026-05-06 15:43 | 50.22061 | 11.99208 | 34768 ft | 403 kts | 162° |
| 2026-05-06 15:44 | 50.16910 | 12.02674 | 34749 ft | 403 kts | 162° |
| 2026-05-06 15:44 | 50.11762 | 12.06119 | 34759 ft | 402 kts | 162° |
| 2026-05-06 15:45 | 50.06621 | 12.09561 | 34761 ft | 402 kts | 162° |
| 2026-05-06 15:45 | 50.01483 | 12.12992 | 34760 ft | 402 kts | 162° |
| 2026-05-06 15:46 | 49.96345 | 12.16409 | 34769 ft | 402 kts | 163° |
| 2026-05-06 15:46 | 49.91205 | 12.19819 | 34766 ft | 401 kts | 163° |
| 2026-05-06 15:47 | 49.86071 | 12.23219 | 34762 ft | 401 kts | 163° |
| 2026-05-06 15:47 | 49.80937 | 12.26615 | 34751 ft | 401 kts | 163° |
| 2026-05-06 15:48 | 49.75831 | 12.29976 | 34714 ft | 401 kts | 164° |
| 2026-05-06 15:48 | 49.70854 | 12.33944 | 34736 ft | 411 kts | 150° |
| 2026-05-06 15:49 | 49.65995 | 12.38213 | 34738 ft | 397 kts | 165° |
| 2026-05-06 15:49 | 49.60809 | 12.40901 | 34739 ft | 386 kts | 178° |
| 2026-05-06 15:50 | 49.55492 | 12.42037 | 34737 ft | 386 kts | 178° |
| 2026-05-06 15:50 | 49.50175 | 12.43141 | 34737 ft | 386 kts | 178° |
| 2026-05-06 15:51 | 49.44851 | 12.44249 | 34744 ft | 386 kts | 178° |
| 2026-05-06 15:51 | 49.39529 | 12.45354 | 34748 ft | 386 kts | 178° |
| 2026-05-06 15:52 | 49.34205 | 12.46450 | 34742 ft | 386 kts | 178° |
| 2026-05-06 15:52 | 49.28887 | 12.47542 | 34729 ft | 386 kts | 178° |
| 2026-05-06 15:53 | 49.23608 | 12.48626 | 34746 ft | 385 kts | 178° |
| 2026-05-06 15:53 | 49.18297 | 12.49726 | 34712 ft | 384 kts | 178° |
| 2026-05-06 15:54 | 49.12991 | 12.50820 | 34714 ft | 385 kts | 178° |
| 2026-05-06 15:54 | 49.07673 | 12.51898 | 34718 ft | 384 kts | 180° |
| 2026-05-06 15:55 | 49.05029 | 12.51942 | 34726 ft | 377 kts | 191° |
| 2026-05-06 15:55 | 49.02472 | 12.51235 | 34710 ft | 372 kts | 199° |
| 2026-05-06 15:55 | 49.00020 | 12.49854 | 33940 ft | 378 kts | 208° |
| 2026-05-06 15:55 | 48.97667 | 12.48149 | 33005 ft | 371 kts | 208° |
| 2026-05-06 15:56 | 48.95351 | 12.46479 | 32072 ft | 366 kts | 208° |
| 2026-05-06 15:56 | 48.93088 | 12.44833 | 31148 ft | 355 kts | 208° |
| 2026-05-06 15:56 | 48.90874 | 12.43230 | 30273 ft | 350 kts | 208° |
| 2026-05-06 15:56 | 48.88675 | 12.41669 | 29347 ft | 346 kts | 207° |
| 2026-05-06 15:57 | 48.86500 | 12.40138 | 28367 ft | 343 kts | 207° |
| 2026-05-06 15:57 | 48.84348 | 12.38627 | 27399 ft | 339 kts | 207° |
| 2026-05-06 15:57 | 48.82252 | 12.37150 | 26490 ft | 335 kts | 207° |
| 2026-05-06 15:57 | 48.80147 | 12.35664 | 25616 ft | 331 kts | 206° |
| 2026-05-06 15:58 | 48.77995 | 12.34461 | 24746 ft | 330 kts | 198° |
| 2026-05-06 15:58 | 48.75776 | 12.33609 | 23904 ft | 327 kts | 197° |
| 2026-05-06 15:58 | 48.73579 | 12.32768 | 23041 ft | 324 kts | 197° |
| 2026-05-06 15:58 | 48.71403 | 12.31928 | 22094 ft | 322 kts | 197° |
| 2026-05-06 15:59 | 48.69241 | 12.31088 | 21169 ft | 320 kts | 197° |
| 2026-05-06 15:59 | 48.67087 | 12.30250 | 20271 ft | 318 kts | 197° |
| 2026-05-06 15:59 | 48.64954 | 12.29393 | 19395 ft | 316 kts | 200° |
| 2026-05-06 15:59 | 48.62980 | 12.27996 | 18550 ft | 312 kts | 213° |
| 2026-05-06 16:00 | 48.61311 | 12.25916 | 17676 ft | 311 kts | 226° |
| 2026-05-06 16:00 | 48.60033 | 12.23285 | 16742 ft | 312 kts | 239° |
| 2026-05-06 16:00 | 48.58990 | 12.20412 | 15852 ft | 310 kts | 232° |
| 2026-05-06 16:00 | 48.57414 | 12.18227 | 14972 ft | 310 kts | 210° |
| 2026-05-06 16:01 | 48.55372 | 12.17228 | 14102 ft | 313 kts | 187° |
| 2026-05-06 16:01 | 48.53200 | 12.17595 | 13257 ft | 319 kts | 163° |
| 2026-05-06 16:01 | 48.51299 | 12.19262 | 12319 ft | 326 kts | 140° |
| 2026-05-06 16:01 | 48.49924 | 12.21952 | 11701 ft | 323 kts | 126° |
| 2026-05-06 16:02 | 48.48779 | 12.24828 | 11073 ft | 316 kts | 124° |
| 2026-05-06 16:02 | 48.47684 | 12.27655 | 10454 ft | 309 kts | 124° |
| 2026-05-06 16:02 | 48.46609 | 12.30414 | 9936 ft | 299 kts | 128° |
| 2026-05-06 16:02 | 48.45213 | 12.32553 | 9417 ft | 279 kts | 153° |
| 2026-05-06 16:03 | 48.43444 | 12.33444 | 8863 ft | 264 kts | 180° |
| 2026-05-06 16:03 | 48.41704 | 12.32925 | 8324 ft | 254 kts | 210° |
| 2026-05-06 16:03 | 48.40496 | 12.31068 | 7798 ft | 251 kts | 242° |
| 2026-05-06 16:03 | 48.40102 | 12.28542 | 7388 ft | 245 kts | 261° |
| 2026-05-06 16:04 | 48.39936 | 12.26041 | 7068 ft | 235 kts | 261° |
| 2026-05-06 16:04 | 48.39772 | 12.23637 | 6767 ft | 227 kts | 261° |
| 2026-05-06 16:04 | 48.39604 | 12.21319 | 6482 ft | 219 kts | 261° |
| 2026-05-06 16:04 | 48.39441 | 12.19075 | 6210 ft | 213 kts | 261° |
| 2026-05-06 16:05 | 48.39283 | 12.16909 | 5992 ft | 202 kts | 260° |
| 2026-05-06 16:05 | 48.39133 | 12.14863 | 5711 ft | 192 kts | 261° |
| 2026-05-06 16:05 | 48.38988 | 12.12887 | 5470 ft | 189 kts | 263° |
| 2026-05-06 16:05 | 48.38842 | 12.10917 | 5224 ft | 190 kts | 262° |
| 2026-05-06 16:06 | 48.38697 | 12.08949 | 4989 ft | 189 kts | 263° |
| 2026-05-06 16:06 | 48.38553 | 12.06993 | 4739 ft | 189 kts | 263° |
| 2026-05-06 16:06 | 48.38408 | 12.05033 | 4515 ft | 189 kts | 264° |
| 2026-05-06 16:06 | 48.38263 | 12.03079 | 4249 ft | 187 kts | 264° |
| 2026-05-06 16:07 | 48.38119 | 12.01147 | 4000 ft | 185 kts | 264° |
| 2026-05-06 16:07 | 48.37976 | 11.99223 | 3755 ft | 185 kts | 264° |
| 2026-05-06 16:07 | 48.37833 | 11.97312 | 3518 ft | 183 kts | 264° |
| 2026-05-06 16:07 | 48.37696 | 11.95488 | 3287 ft | 166 kts | 264° |
| 2026-05-06 16:08 | 48.37573 | 11.93848 | 3084 ft | 151 kts | 265° |
| 2026-05-06 16:08 | 48.37457 | 11.92306 | 2890 ft | 146 kts | 265° |
| 2026-05-06 16:08 | 48.37344 | 11.90807 | 2706 ft | 143 kts | 265° |
| 2026-05-06 16:08 | 48.37233 | 11.89325 | 2506 ft | 142 kts | 265° |
| 2026-05-06 16:09 | 48.37146 | 11.87859 | 2325 ft | 140 kts | 266° |
| 2026-05-06 16:09 | 48.37067 | 11.86424 | 2148 ft | 136 kts | 266° |
| 2026-05-06 16:09 | 48.36943 | 11.84995 | 1925 ft | 141 kts | 263° |
| 2026-05-06 16:09 | 48.36804 | 11.83580 | 1678 ft | 133 kts | 263° |
| 2026-05-06 16:10 | 48.36696 | 11.82214 | 1542 ft | 134 kts | 268° |
| 2026-05-06 16:10 | 48.36603 | 11.80862 | 1468 ft | 118 kts | 265° |
| 2026-05-06 16:10 | 48.36530 | 11.79886 | 1463 ft | 71 kts | 264° |
| 2026-05-06 16:10 | 48.36484 | 11.79412 | 1468 ft | 21 kts | 256° |
| 2026-05-06 16:11 | 48.36458 | 11.79181 | 1469 ft | 42 kts | 263° |
| 2026-05-06 16:11 | 48.36355 | 11.78833 | 1460 ft | 30 kts | 227° |
| 2026-05-06 16:11 | 48.36232 | 11.78567 | 1461 ft | 31 kts | 233° |
| 2026-05-06 16:11 | 48.36176 | 11.78452 | 1462 ft | 1 kts | 234° |
| 2026-05-06 16:12 | 48.36149 | 11.78440 | 1462 ft | 13 kts | 174° |
| 2026-05-06 16:12 | 48.36067 | 11.78494 | 1462 ft | 12 kts | 158° |
| 2026-05-06 16:12 | 48.36039 | 11.78594 | 1463 ft | 14 kts | 87° |
| 2026-05-06 16:13 | 48.36058 | 11.78796 | 1468 ft | 21 kts | 84° |
| 2026-05-06 16:13 | 48.36071 | 11.79026 | 1463 ft | 23 kts | 85° |
| 2026-05-06 16:13 | 48.36083 | 11.79262 | 1468 ft | 20 kts | 98° |
| 2026-05-06 16:13 | 48.36031 | 11.79327 | 1462 ft | 0 kts | 173° |
| 2026-05-06 16:14 | 48.36030 | 11.79327 | 1462 ft | 1 kts | 173° |
| 2026-05-06 16:14 | 48.35987 | 11.79335 | 1468 ft | 9 kts | 173° |
| 2026-05-06 16:15 | 48.35875 | 11.79383 | 1460 ft | 24 kts | 169° |
| 2026-05-06 16:15 | 48.35709 | 11.79412 | 1463 ft | 21 kts | 174° |
| 2026-05-06 16:15 | 48.35554 | 11.79436 | 1458 ft | 23 kts | 174° |
| 2026-05-06 16:15 | 48.35386 | 11.79464 | 1458 ft | 25 kts | 174° |
| 2026-05-06 16:16 | 48.35210 | 11.79495 | 1467 ft | 18 kts | 173° |
| 2026-05-06 16:16 | 48.35180 | 11.79500 | 1461 ft | 0 kts | 173° |
| 2026-05-06 16:16 | 48.35163 | 11.79466 | 1461 ft | 11 kts | 248° |
| 2026-05-06 16:16 | 48.35159 | 11.79368 | 1465 ft | 13 kts | 268° |
| 2026-05-06 16:17 | 48.35159 | 11.79333 | 1467 ft | 0 kts | 262° |